createdAt,value
2019-02-15T00:01:45.425Z,3.50
2019-02-15T00:04:15.888Z,3.60
2019-02-15T00:06:46.638Z,3.50
2019-02-15T00:09:17.088Z,3.50
2019-02-15T00:11:47.840Z,3.50
2019-02-15T00:14:18.394Z,3.50
2019-02-15T00:16:48.841Z,3.50
2019-02-15T00:19:39.722Z,3.50
2019-02-15T00:22:10.786Z,3.50
2019-02-15T00:24:41.260Z,3.50
2019-02-15T00:27:11.720Z,3.50
2019-02-15T00:29:42.467Z,3.50
2019-02-15T00:32:13.416Z,3.50
2019-02-15T00:34:43.894Z,3.50
2019-02-15T00:37:14.740Z,3.50
2019-02-15T00:39:45.208Z,3.40
2019-02-15T00:42:15.685Z,3.30
2019-02-15T00:44:46.168Z,3.30
2019-02-15T00:47:35.892Z,3.20
2019-02-15T00:50:14.838Z,3.20
2019-02-15T00:53:22.825Z,3.10
2019-02-15T00:56:04.020Z,3.10
2019-02-15T00:58:52.250Z,3.00
2019-02-15T01:01:42.357Z,3.00
2019-02-15T01:04:18.941Z,2.90
2019-02-15T01:07:14.329Z,2.90
2019-02-15T01:10:06.854Z,2.90
2019-02-15T01:13:00.795Z,2.80
2019-02-15T01:15:31.256Z,2.80
2019-02-15T01:18:01.821Z,2.80
2019-02-15T01:20:32.341Z,2.80
2019-02-15T01:23:03.111Z,2.70
2019-02-15T01:25:40.814Z,2.70
2019-02-15T01:28:45.713Z,2.70
2019-02-15T01:31:30.362Z,2.60
2019-02-15T01:34:32.262Z,2.60
2019-02-15T01:37:12.184Z,2.60
2019-02-15T01:39:59.756Z,2.70
2019-02-15T01:42:49.248Z,2.70
2019-02-15T01:45:32.957Z,2.70
2019-02-15T01:48:03.788Z,2.60
2019-02-15T01:50:34.270Z,2.60
2019-02-15T01:53:05.095Z,2.50
2019-02-15T01:55:35.845Z,2.50
2019-02-15T01:58:06.280Z,2.50
2019-02-15T02:00:36.917Z,2.40
2019-02-15T02:03:07.393Z,2.50
2019-02-15T02:05:37.920Z,2.40
2019-02-15T02:08:10.060Z,2.50
2019-02-15T02:10:40.609Z,2.50
2019-02-15T02:13:11.080Z,2.50
2019-02-15T02:15:41.526Z,2.50
2019-02-15T02:18:11.991Z,2.40
2019-02-15T02:20:42.429Z,2.40
2019-02-15T02:23:12.893Z,2.40
2019-02-15T02:25:43.341Z,2.40
2019-02-15T02:28:13.833Z,2.40
2019-02-15T02:30:44.296Z,2.30
2019-02-15T02:33:15.139Z,2.30
2019-02-15T02:35:45.587Z,2.30
2019-02-15T02:38:16.038Z,2.30
2019-02-15T02:40:46.505Z,2.30
2019-02-15T02:43:16.951Z,2.30
2019-02-15T02:45:47.396Z,2.30
2019-02-15T02:48:17.865Z,2.30
2019-02-15T02:50:48.332Z,2.30
2019-02-15T02:53:18.977Z,2.30
2019-02-15T02:55:49.429Z,2.30
2019-02-15T02:58:20.176Z,2.30
2019-02-15T03:00:50.638Z,2.30
2019-02-15T03:03:21.341Z,2.30
2019-02-15T03:05:52.116Z,2.30
2019-02-15T03:08:22.581Z,2.20
2019-02-15T03:10:53.016Z,2.20
2019-02-15T03:13:23.458Z,2.20
2019-02-15T03:15:54.237Z,2.20
2019-02-15T03:18:25.524Z,2.20
2019-02-15T03:20:55.972Z,2.20
2019-02-15T03:23:26.693Z,2.20
2019-02-15T03:25:57.146Z,2.20
2019-02-15T03:28:27.919Z,2.10
2019-02-15T03:30:58.402Z,2.10
2019-02-15T03:33:28.851Z,2.10
2019-02-15T03:36:02.291Z,2.10
2019-02-15T03:38:46.718Z,2.20
2019-02-15T03:41:27.598Z,2.20
2019-02-15T03:43:58.056Z,2.20
2019-02-15T03:46:28.497Z,2.20
2019-02-15T03:48:58.947Z,2.20
2019-02-15T03:51:29.371Z,2.20
2019-02-15T03:54:00.172Z,2.10
2019-02-15T03:56:30.687Z,2.20
2019-02-15T03:59:01.118Z,2.10
2019-02-15T04:01:31.562Z,2.10
2019-02-15T04:04:02.001Z,2.10
2019-02-15T04:06:32.493Z,2.10
2019-02-15T04:09:04.365Z,2.10
2019-02-15T04:11:34.820Z,2.10
2019-02-15T04:14:05.606Z,2.00
2019-02-15T04:16:36.110Z,2.00
2019-02-15T04:19:06.959Z,2.00
2019-02-15T04:21:37.368Z,2.00
2019-02-15T04:24:07.889Z,1.90
2019-02-15T04:26:38.333Z,1.90
2019-02-15T04:29:08.781Z,1.90
2019-02-15T04:31:39.231Z,1.80
2019-02-15T04:34:10.330Z,1.80
2019-02-15T04:36:40.752Z,1.70
2019-02-15T04:39:11.198Z,1.70
2019-02-15T04:41:41.628Z,1.70
2019-02-15T04:44:12.098Z,1.60
2019-02-15T04:46:42.561Z,1.60
2019-02-15T04:49:13.011Z,1.60
2019-02-15T04:51:43.461Z,1.60
2019-02-15T04:54:13.906Z,1.60
2019-02-15T04:56:44.711Z,1.60
2019-02-15T04:59:15.182Z,1.60
2019-02-15T05:01:45.632Z,1.60
2019-02-15T05:04:16.509Z,1.50
2019-02-15T05:06:47.008Z,1.50
2019-02-15T05:09:17.469Z,1.50
2019-02-15T05:11:47.914Z,1.50
2019-02-15T05:14:18.440Z,1.50
2019-02-15T05:16:48.889Z,1.50
2019-02-15T05:19:19.424Z,1.50
2019-02-15T05:21:50.155Z,1.50
2019-02-15T05:24:20.629Z,1.50
2019-02-15T05:26:51.627Z,1.40
2019-02-15T05:29:22.415Z,1.40
2019-02-15T05:31:52.880Z,1.40
2019-02-15T05:34:23.346Z,1.40
2019-02-15T05:36:53.809Z,1.40
2019-02-15T05:39:24.511Z,1.40
2019-02-15T05:41:54.966Z,1.40
2019-02-15T05:44:25.420Z,1.40
2019-02-15T05:46:55.926Z,1.30
2019-02-15T05:49:26.725Z,1.30
2019-02-15T05:51:57.185Z,1.30
2019-02-15T05:54:27.727Z,1.30
2019-02-15T05:56:58.486Z,1.30
2019-02-15T05:59:28.960Z,1.20
2019-02-15T06:01:59.409Z,1.20
2019-02-15T06:04:29.872Z,1.30
2019-02-15T06:07:00.594Z,1.20
2019-02-15T06:09:31.175Z,1.20
2019-02-15T06:12:01.606Z,1.20
2019-02-15T06:14:32.110Z,1.20
2019-02-15T06:17:02.590Z,1.20
2019-02-15T06:19:33.111Z,1.20
2019-02-15T06:22:03.555Z,1.20
2019-02-15T06:24:34.047Z,1.10
2019-02-15T06:27:04.507Z,1.10
2019-02-15T06:29:34.981Z,1.10
2019-02-15T06:32:05.430Z,1.10
2019-02-15T06:34:36.193Z,1.10
2019-02-15T06:37:06.660Z,1.10
2019-02-15T06:39:37.160Z,1.10
2019-02-15T06:42:07.620Z,1.10
2019-02-15T06:44:38.357Z,1.10
2019-02-15T06:47:08.800Z,1.20
2019-02-15T06:49:39.633Z,1.20
2019-02-15T06:52:10.091Z,1.20
2019-02-15T06:54:40.940Z,1.20
2019-02-15T06:57:11.388Z,1.20
2019-02-15T07:00:01.723Z,1.20
2019-02-15T07:02:36.981Z,1.20
2019-02-15T07:05:21.169Z,1.20
2019-02-15T07:07:51.940Z,1.30
2019-02-15T07:10:22.410Z,1.30
2019-02-15T07:12:52.856Z,1.30
2019-02-15T07:15:23.405Z,1.30
2019-02-15T07:17:53.857Z,1.30
2019-02-15T07:20:24.329Z,1.40
2019-02-15T07:22:54.891Z,1.50
2019-02-15T07:25:26.260Z,1.50
2019-02-15T07:27:57.077Z,1.60
2019-02-15T07:30:27.561Z,1.60
2019-02-15T07:32:58.589Z,1.60
2019-02-15T07:35:29.049Z,1.70
2019-02-15T07:37:59.494Z,1.70
2019-02-15T07:40:29.936Z,1.70
2019-02-15T07:43:00.381Z,1.70
2019-02-15T07:45:31.196Z,1.80
2019-02-15T07:48:02.962Z,1.90
2019-02-15T07:50:33.799Z,1.90
2019-02-15T07:53:04.272Z,2.00
2019-02-15T07:55:34.721Z,2.10
2019-02-15T07:58:05.167Z,2.20
2019-02-15T08:00:35.631Z,2.30
2019-02-15T08:03:06.088Z,2.40
2019-02-15T08:05:36.542Z,2.50
2019-02-15T08:08:07.027Z,2.60
2019-02-15T08:10:39.424Z,2.70
2019-02-15T08:13:10.137Z,2.80
2019-02-15T08:15:40.909Z,2.90
2019-02-15T08:18:11.393Z,3.00
2019-02-15T08:20:41.861Z,3.10
2019-02-15T08:23:13.332Z,3.10
2019-02-15T08:25:44.138Z,3.20
2019-02-15T08:28:14.628Z,3.30
2019-02-15T08:30:45.103Z,3.40
2019-02-15T08:33:15.901Z,3.40
2019-02-15T08:35:46.367Z,3.50
2019-02-15T08:38:16.825Z,3.50
2019-02-15T08:40:47.274Z,3.50
2019-02-15T08:43:17.755Z,3.60
2019-02-15T08:45:48.193Z,3.70
2019-02-15T08:48:19.072Z,3.80
2019-02-15T08:50:49.568Z,3.80
2019-02-15T08:53:20.038Z,4.00
2019-02-15T08:55:50.830Z,4.10
2019-02-15T08:58:21.335Z,4.20
2019-02-15T09:00:51.805Z,4.40
2019-02-15T09:03:22.518Z,4.50
2019-02-15T09:05:52.968Z,4.70
2019-02-15T09:08:23.426Z,4.90
2019-02-15T09:10:54.182Z,5.00
2019-02-15T09:13:24.669Z,5.20
2019-02-15T09:15:55.399Z,5.40
2019-02-15T09:18:25.877Z,5.50
2019-02-15T09:23:31.913Z,5.60
2019-02-15T09:26:02.731Z,5.80
2019-02-15T09:28:37.686Z,5.90
2019-02-15T09:31:08.160Z,6.10
2019-02-15T09:33:38.627Z,6.20
2019-02-15T09:36:09.089Z,6.30
2019-02-15T09:38:39.547Z,6.50
2019-02-15T09:41:10.414Z,6.60
2019-02-15T09:43:40.929Z,6.70
2019-02-15T09:46:19.504Z,6.80
2019-02-15T09:48:43.878Z,6.90
2019-02-15T09:51:14.622Z,6.90
2019-02-15T09:53:45.370Z,7.10
2019-02-15T09:56:15.832Z,7.10
2019-02-15T09:58:46.304Z,7.30
2019-02-15T10:01:16.767Z,7.30
2019-02-15T10:03:47.249Z,7.50
2019-02-15T10:06:17.717Z,7.60
2019-02-15T10:08:48.820Z,7.70
2019-02-15T10:11:19.279Z,7.90
2019-02-15T10:13:49.808Z,8.00
2019-02-15T10:16:28.249Z,8.20
2019-02-15T10:18:52.413Z,8.30
2019-02-15T10:21:22.907Z,8.50
2019-02-15T10:23:53.937Z,8.70
2019-02-15T10:26:24.410Z,8.80
2019-02-15T10:28:55.197Z,9.00
2019-02-15T10:31:26.316Z,9.10
2019-02-15T10:33:56.757Z,9.30
2019-02-15T10:36:27.475Z,9.50
2019-02-15T10:38:57.922Z,9.70
2019-02-15T10:41:28.706Z,9.90
2019-02-15T10:43:59.211Z,10.10
2019-02-15T10:46:37.604Z,10.40
2019-02-15T10:49:02.313Z,10.70
2019-02-15T10:51:32.783Z,10.90
2019-02-15T10:54:03.244Z,11.20
2019-02-15T10:56:33.723Z,11.50
2019-02-15T10:59:04.197Z,11.90
2019-02-15T11:01:34.642Z,12.70
2019-02-15T11:04:05.117Z,13.60
2019-02-15T11:06:35.950Z,14.50
2019-02-15T11:09:11.282Z,15.30
2019-02-15T11:11:41.760Z,16.10
2019-02-15T11:14:12.297Z,16.70
2019-02-15T11:16:47.216Z,17.00
2019-02-15T11:19:15.389Z,17.30
2019-02-15T11:21:45.845Z,17.60
2019-02-15T11:24:16.680Z,18.00
2019-02-15T11:26:47.138Z,18.40
2019-02-15T11:29:17.626Z,18.90
2019-02-15T11:31:48.087Z,19.40
2019-02-15T11:34:18.563Z,19.60
2019-02-15T11:36:49.389Z,19.80
2019-02-15T11:39:20.299Z,20.20
2019-02-15T11:41:50.755Z,20.50
2019-02-15T11:44:21.301Z,20.80
2019-02-15T11:46:56.736Z,21.00
2019-02-15T11:49:24.322Z,21.00
2019-02-15T11:51:54.785Z,20.90
2019-02-15T11:54:25.332Z,20.80
2019-02-15T11:56:55.816Z,21.00
2019-02-15T11:59:26.296Z,21.20
2019-02-15T12:02:05.485Z,21.50
2019-02-15T12:04:29.013Z,21.60
2019-02-15T12:06:59.526Z,21.50
2019-02-15T12:09:29.992Z,21.50
2019-02-15T12:12:00.501Z,21.60
2019-02-15T12:14:31.037Z,21.60
2019-02-15T12:17:05.581Z,21.70
2019-02-15T12:19:34.670Z,22.00
2019-02-15T12:22:05.154Z,22.20
2019-02-15T12:24:35.621Z,22.60
2019-02-15T12:27:06.416Z,22.60
2019-02-15T12:29:36.989Z,22.60
2019-02-15T12:32:07.493Z,22.70
2019-02-15T12:34:37.987Z,22.60
2019-02-15T12:37:08.501Z,22.40
2019-02-15T12:39:38.966Z,22.50
2019-02-15T12:42:11.041Z,22.70
2019-02-15T12:44:41.543Z,23.10
2019-02-15T12:47:15.092Z,23.50
2019-02-15T12:49:44.905Z,23.80
2019-02-15T12:52:15.425Z,24.10
2019-02-15T12:54:46.355Z,24.20
2019-02-15T12:57:16.848Z,24.10
2019-02-15T12:59:47.338Z,24.30
2019-02-15T13:02:17.905Z,24.50
2019-02-15T13:04:48.382Z,24.70
2019-02-15T13:07:19.016Z,24.90
2019-02-15T13:09:51.957Z,25.00
2019-02-15T13:12:22.286Z,25.20
2019-02-15T13:14:52.818Z,25.40
2019-02-15T13:17:25.012Z,25.60
2019-02-15T13:19:55.723Z,25.70
2019-02-15T13:22:26.192Z,25.50
2019-02-15T13:24:56.950Z,25.40
2019-02-15T13:27:27.739Z,25.50
2019-02-15T13:29:58.561Z,25.60
2019-02-15T13:32:29.063Z,25.70
2019-02-15T13:34:59.997Z,25.80
2019-02-15T13:37:31.439Z,25.90
2019-02-15T13:40:02.293Z,25.90
2019-02-15T13:42:32.954Z,26.00
2019-02-15T13:47:51.865Z,26.00
2019-02-15T13:50:22.415Z,26.00
2019-02-15T13:52:52.943Z,25.70
2019-02-15T13:55:23.537Z,25.40
2019-02-15T13:57:54.108Z,24.90
2019-02-15T14:00:24.663Z,24.40
2019-02-15T14:02:55.133Z,23.80
2019-02-15T14:05:25.707Z,23.30
2019-02-15T14:07:57.278Z,22.90
2019-02-15T14:10:28.104Z,22.60
2019-02-15T14:12:58.653Z,22.30
2019-02-15T14:15:29.191Z,21.80
2019-02-15T14:17:59.690Z,20.90
2019-02-15T14:20:30.656Z,20.00
2019-02-15T14:23:01.157Z,19.20
2019-02-15T14:25:31.658Z,18.60
2019-02-15T14:28:02.161Z,18.00
2019-02-15T14:30:32.655Z,17.40
2019-02-15T14:33:03.159Z,16.80
2019-02-15T14:35:34.089Z,16.30
2019-02-15T14:38:04.837Z,15.90
2019-02-15T14:40:35.873Z,15.60
2019-02-15T14:43:06.370Z,15.30
2019-02-15T14:45:36.850Z,15.10
2019-02-15T14:48:07.641Z,14.90
2019-02-15T14:50:38.109Z,14.70
2019-02-15T14:53:08.610Z,14.60
2019-02-15T14:55:39.069Z,14.50
2019-02-15T14:58:09.568Z,14.40
2019-02-15T15:00:40.085Z,14.20
2019-02-15T15:03:10.613Z,14.00
2019-02-15T15:05:41.277Z,13.90
2019-02-15T15:08:11.796Z,13.80
2019-02-15T15:10:42.255Z,13.70
2019-02-15T15:13:12.793Z,13.60
2019-02-15T15:15:43.264Z,13.60
2019-02-15T15:18:13.779Z,13.40
2019-02-15T15:20:44.515Z,13.30
2019-02-15T15:23:16.157Z,13.20
2019-02-15T15:25:46.702Z,13.10
2019-02-15T15:28:17.164Z,13.00
2019-02-15T15:30:47.652Z,13.00
2019-02-15T15:33:18.550Z,13.00
2019-02-15T15:35:49.747Z,12.90
2019-02-15T15:38:20.289Z,12.80
2019-02-15T15:40:50.737Z,12.70
2019-02-15T15:43:21.263Z,12.60
2019-02-15T15:45:51.756Z,12.60
2019-02-15T15:48:23.084Z,12.50
2019-02-15T15:50:53.732Z,12.50
2019-02-15T15:53:24.188Z,12.40
2019-02-15T15:55:54.950Z,12.30
2019-02-15T15:58:25.775Z,12.30
2019-02-15T16:00:56.243Z,12.20
2019-02-15T16:03:26.740Z,12.10
2019-02-15T16:05:57.200Z,12.10
2019-02-15T16:08:27.711Z,12.00
2019-02-15T16:10:58.482Z,12.00
2019-02-15T16:13:28.989Z,11.90
2019-02-15T16:15:59.548Z,11.80
2019-02-15T16:18:34.227Z,11.70
2019-02-15T16:21:02.184Z,11.60
2019-02-15T16:23:32.981Z,11.50
2019-02-15T16:26:03.464Z,11.40
2019-02-15T16:28:34.393Z,11.30
2019-02-15T16:31:05.165Z,11.10
2019-02-15T16:33:35.617Z,11.00
2019-02-15T16:36:06.114Z,10.90
2019-02-15T16:38:37.447Z,10.70
2019-02-15T16:41:07.939Z,10.60
2019-02-15T16:43:38.417Z,10.50
2019-02-15T16:46:10.270Z,10.40
2019-02-15T16:48:42.300Z,10.30
2019-02-15T16:51:12.949Z,10.10
2019-02-15T16:53:43.801Z,10.00
2019-02-15T16:56:14.314Z,9.90
2019-02-15T16:58:45.222Z,9.80
2019-02-15T17:01:15.696Z,9.70
2019-02-15T17:03:46.171Z,9.60
2019-02-15T17:06:16.638Z,9.50
2019-02-15T17:08:47.107Z,9.40
2019-02-15T17:11:17.607Z,9.30
2019-02-15T17:13:48.100Z,9.10
2019-02-15T17:16:18.558Z,9.00
2019-02-15T17:18:51.744Z,8.90
2019-02-15T17:21:21.237Z,8.80
2019-02-15T17:23:51.737Z,8.70
2019-02-15T17:26:22.217Z,8.60
2019-02-15T17:28:52.953Z,8.50
2019-02-15T17:31:23.468Z,8.50
2019-02-15T17:33:54.287Z,8.40
2019-02-15T17:36:24.841Z,8.30
2019-02-15T17:38:55.612Z,8.20
2019-02-15T17:41:26.064Z,8.10
2019-02-15T17:43:56.550Z,8.10
2019-02-15T17:46:27.038Z,8.00
2019-02-15T17:49:00.688Z,8.00
2019-02-15T17:51:29.638Z,7.90
2019-02-15T17:54:00.163Z,7.80
2019-02-15T17:56:31.054Z,7.80
2019-02-15T17:59:01.548Z,7.70
2019-02-15T18:01:32.782Z,7.60
2019-02-15T18:04:03.933Z,7.60
2019-02-15T18:06:34.408Z,7.50
2019-02-15T18:09:06.437Z,7.50
2019-02-15T18:11:36.908Z,7.40
2019-02-15T18:14:07.382Z,7.40
2019-02-15T18:16:37.833Z,7.40
2019-02-15T18:19:10.038Z,7.30
2019-02-15T18:21:40.540Z,7.30
2019-02-15T18:24:11.010Z,7.20
2019-02-15T18:26:41.506Z,7.10
2019-02-15T18:29:11.993Z,7.10
2019-02-15T18:31:42.545Z,7.00
2019-02-15T18:34:13.024Z,7.00
2019-02-15T18:36:43.524Z,6.90
2019-02-15T18:39:14.048Z,6.90
2019-02-15T18:41:44.925Z,6.80
2019-02-15T18:44:15.464Z,6.80
2019-02-15T18:46:45.969Z,6.80
2019-02-15T18:49:19.366Z,6.70
2019-02-15T18:51:48.684Z,6.60
2019-02-15T18:54:19.593Z,6.60
2019-02-15T18:56:50.059Z,6.60
2019-02-15T18:59:20.568Z,6.50
2019-02-15T19:01:51.173Z,6.50
2019-02-15T19:04:21.658Z,6.40
2019-02-15T19:06:52.153Z,6.40
2019-02-15T19:09:22.648Z,6.40
2019-02-15T19:11:53.481Z,6.30
2019-02-15T19:14:23.985Z,6.30
2019-02-15T19:16:54.452Z,6.30
2019-02-15T19:19:29.156Z,6.20
2019-02-15T19:21:57.110Z,6.20
2019-02-15T19:24:27.582Z,6.10
2019-02-15T19:26:59.504Z,6.10
2019-02-15T19:29:31.993Z,6.10
2019-02-15T19:32:03.008Z,6.10
2019-02-15T19:34:33.477Z,6.00
2019-02-15T19:37:03.965Z,5.90
2019-02-15T19:39:34.434Z,5.90
2019-02-15T19:42:09.633Z,5.80
2019-02-15T19:44:40.493Z,5.80
2019-02-15T19:47:11.018Z,5.80
2019-02-15T19:49:41.507Z,5.80
2019-02-15T19:52:12.001Z,5.70
2019-02-15T19:54:42.486Z,5.70
2019-02-15T19:57:13.277Z,5.60
2019-02-15T19:59:53.203Z,5.60
2019-02-15T20:02:16.395Z,5.60
2019-02-15T20:04:48.149Z,5.50
2019-02-15T20:07:18.708Z,5.50
2019-02-15T20:09:49.434Z,5.50
2019-02-15T20:12:20.073Z,5.40
2019-02-15T20:14:50.604Z,5.40
2019-02-15T20:17:21.065Z,5.30
2019-02-15T20:19:51.546Z,5.30
2019-02-15T20:22:22.000Z,5.30
2019-02-15T20:24:52.497Z,5.20
2019-02-15T20:27:22.946Z,5.20
2019-02-15T20:29:53.406Z,5.20
2019-02-15T20:32:24.215Z,5.10
2019-02-15T20:34:54.680Z,5.10
2019-02-15T20:37:25.129Z,5.00
2019-02-15T20:39:55.606Z,5.00
2019-02-15T20:42:26.101Z,5.00
2019-02-15T20:44:56.601Z,5.00
2019-02-15T20:47:27.442Z,5.00
2019-02-15T20:49:58.380Z,4.90
2019-02-15T20:52:30.091Z,4.90
2019-02-15T20:55:00.549Z,4.90
2019-02-15T20:57:30.998Z,4.80
2019-02-15T21:00:01.483Z,4.80
2019-02-15T21:02:31.949Z,4.80
2019-02-15T21:05:02.430Z,4.80
2019-02-15T21:07:32.914Z,4.70
2019-02-15T21:10:03.422Z,4.70
2019-02-15T21:12:34.251Z,4.70
2019-02-15T21:15:04.846Z,4.60
2019-02-15T21:17:36.302Z,4.70
2019-02-15T21:20:08.330Z,4.60
2019-02-15T21:22:39.300Z,4.60
2019-02-15T21:25:11.743Z,4.50
2019-02-15T21:27:42.212Z,4.50
2019-02-15T21:30:13.833Z,4.40
2019-02-15T21:32:44.381Z,4.40
2019-02-15T21:35:15.355Z,4.40
2019-02-15T21:37:46.927Z,4.40
2019-02-15T21:40:17.441Z,4.40
2019-02-15T21:42:47.910Z,4.30
2019-02-15T21:45:18.387Z,4.30
2019-02-15T21:47:48.853Z,4.30
2019-02-15T21:50:19.324Z,4.30
2019-02-15T21:52:49.769Z,4.20
2019-02-15T21:55:20.249Z,4.20
2019-02-15T21:57:51.132Z,4.20
2019-02-15T22:00:21.743Z,4.10
2019-02-15T22:02:52.208Z,4.10
2019-02-15T22:05:22.673Z,4.10
2019-02-15T22:07:53.405Z,4.10
2019-02-15T22:10:23.868Z,4.00
2019-02-15T22:12:54.712Z,4.00
2019-02-15T22:15:25.193Z,4.00
2019-02-15T22:17:55.696Z,3.90
2019-02-15T22:20:27.109Z,3.90
2019-02-15T22:22:58.035Z,3.90
2019-02-15T22:25:28.814Z,3.90
2019-02-15T22:27:59.274Z,3.90
2019-02-15T22:30:30.057Z,3.90
2019-02-15T22:33:00.541Z,3.80
2019-02-15T22:35:31.017Z,3.80
2019-02-15T22:38:01.844Z,3.80
2019-02-15T22:40:43.330Z,3.80
2019-02-15T22:43:22.001Z,3.80
2019-02-15T22:45:52.472Z,3.80
2019-02-15T22:48:22.992Z,3.70
2019-02-15T22:50:53.460Z,3.70
2019-02-15T22:53:24.297Z,3.70
2019-02-15T22:55:54.761Z,3.70
2019-02-15T22:58:25.267Z,3.60
2019-02-15T23:01:08.553Z,3.60
2019-02-15T23:03:39.126Z,3.60
2019-02-15T23:06:09.624Z,3.50
2019-02-15T23:08:40.107Z,3.50
2019-02-15T23:11:10.972Z,3.50
2019-02-15T23:13:41.453Z,3.50
2019-02-15T23:16:11.976Z,3.50
2019-02-15T23:18:42.732Z,3.40
2019-02-15T23:21:13.196Z,3.40
2019-02-15T23:23:44.026Z,3.40
2019-02-15T23:26:14.510Z,3.40
2019-02-15T23:28:45.024Z,3.30
2019-02-15T23:31:15.493Z,3.30
2019-02-15T23:33:46.336Z,3.30
2019-02-15T23:36:16.816Z,3.30
2019-02-15T23:38:47.658Z,3.20
2019-02-15T23:41:18.129Z,3.20
2019-02-15T23:43:48.628Z,3.20
2019-02-15T23:46:19.159Z,3.10
2019-02-15T23:48:49.688Z,3.20
2019-02-15T23:51:20.154Z,3.10
2019-02-15T23:53:50.674Z,3.10
2019-02-15T23:56:21.569Z,3.10
2019-02-15T23:58:52.423Z,3.10
